Time;durP1;ratioP1;P1;durP2;ratioP2;P2;SDS_P1;SDS_P2;PMS_P1;PMS_P2;Temp;Humidity;BMP_temperature;BMP_pressure;BME280_temperature;BME280_humidity;BME280_pressure;Samples;Min_cycle;Max_cycle;Signal;HPM_P1;HPM_P2
2022/04/28 00:00:10;;;;;;;10.13;5.07;;;8.80;99.90;;;;;;5054124;28;20438;-74
2022/04/28 00:02:36;;;;;;;12.63;5.40;;;8.70;99.90;;;;;;5046693;28;20826;-74
2022/04/28 00:05:04;;;;;;;12.80;5.20;;;8.60;99.90;;;;;;5046535;28;20774;-74
2022/04/28 00:07:30;;;;;;;14.32;5.28;;;8.80;99.90;;;;;;5049376;28;20425;-74
2022/04/28 00:09:56;;;;;;;10.50;4.22;;;8.90;99.90;;;;;;5050334;28;20913;-74
2022/04/28 00:12:21;;;;;;;7.67;3.90;;;8.90;99.90;;;;;;5049488;28;20413;-75
2022/04/28 00:14:47;;;;;;;11.98;4.70;;;9.00;99.90;;;;;;5057754;28;20512;-74
2022/04/28 00:17:13;;;;;;;13.80;5.35;;;9.10;99.90;;;;;;5039341;28;20961;-74
2022/04/28 00:19:38;;;;;;;11.75;5.13;;;9.00;99.90;;;;;;5039899;28;20441;-75
2022/04/28 00:22:04;;;;;;;9.57;4.83;;;8.90;99.90;;;;;;5043050;28;20858;-74
2022/04/28 00:24:30;;;;;;;11.40;4.30;;;8.80;99.90;;;;;;5052972;28;20512;-74
2022/04/28 00:26:55;;;;;;;15.27;5.35;;;8.70;99.90;;;;;;5047794;28;20428;-73
2022/04/28 00:29:21;;;;;;;12.03;4.77;;;8.60;99.90;;;;;;5042916;28;20433;-74
2022/04/28 00:31:48;;;;;;;15.27;5.83;;;8.70;99.90;;;;;;5048994;28;20429;-74
2022/04/28 00:34:14;;;;;;;10.05;3.83;;;8.60;99.90;;;;;;5045271;28;20927;-73
2022/04/28 00:36:39;;;;;;;9.13;3.90;;;8.60;99.90;;;;;;5047583;28;20453;-74
2022/04/28 00:39:05;;;;;;;11.80;4.33;;;8.60;99.90;;;;;;5047521;28;20757;-73
2022/04/28 00:41:30;;;;;;;10.60;3.73;;;8.70;99.90;;;;;;5045927;28;20478;-73
2022/04/28 00:43:56;;;;;;;10.43;3.37;;;8.70;99.90;;;;;;5047301;28;20605;-74
2022/04/28 00:46:22;;;;;;;10.25;4.22;;;8.70;99.90;;;;;;5047834;28;20425;-74
2022/04/28 00:51:34;;;;;;;8.95;3.35;;;8.80;99.90;;;;;;5047656;28;20484;-71
2022/04/28 00:54:01;;;;;;;9.15;3.25;;;8.60;99.90;;;;;;5042897;28;20429;-73
2022/04/28 00:56:27;;;;;;;9.50;2.83;;;8.70;99.90;;;;;;5043768;28;20425;-73
2022/04/28 00:58:54;;;;;;;11.60;3.63;;;8.50;99.90;;;;;;5048911;28;20436;-73
2022/04/28 01:01:20;;;;;;;8.85;2.63;;;8.50;99.90;;;;;;5031145;28;20536;-74
2022/04/28 01:03:48;;;;;;;9.15;3.70;;;8.50;99.90;;;;;;5046786;28;20444;-74
2022/04/28 01:06:15;;;;;;;7.97;2.92;;;8.60;99.90;;;;;;5057160;28;20913;-74
2022/04/28 01:08:41;;;;;;;6.13;2.92;;;8.50;99.90;;;;;;5058745;28;20423;-74
2022/04/28 01:11:07;;;;;;;11.23;3.35;;;8.40;99.90;;;;;;5045911;28;20433;-74
2022/04/28 01:13:33;;;;;;;8.43;3.00;;;8.50;99.90;;;;;;5050975;28;20500;-74
2022/04/28 01:16:00;;;;;;;12.20;3.47;;;8.30;99.90;;;;;;5038273;28;20455;-74
2022/04/28 01:18:26;;;;;;;8.70;2.80;;;8.30;99.90;;;;;;5037803;28;20429;-74
2022/04/28 01:20:51;;;;;;;8.63;2.80;;;8.30;99.90;;;;;;5035114;28;20448;-73
2022/04/28 01:23:20;;;;;;;9.40;3.60;;;8.40;99.90;;;;;;5045778;28;20791;-75
2022/04/28 01:25:46;;;;;;;11.40;2.77;;;8.40;99.90;;;;;;5045681;28;20428;-72
2022/04/28 01:28:11;;;;;;;8.03;2.90;;;8.20;99.90;;;;;;5058431;28;20944;-72
2022/04/28 01:30:37;;;;;;;10.13;4.40;;;8.20;99.90;;;;;;5038859;28;20448;-73
2022/04/28 01:33:04;;;;;;;9.27;2.75;;;8.30;99.90;;;;;;5046414;28;20472;-73
2022/04/28 01:35:30;;;;;;;7.15;2.78;;;8.20;99.90;;;;;;5057251;28;20504;-73
2022/04/28 01:37:56;;;;;;;9.43;2.75;;;8.20;99.90;;;;;;5061290;28;21006;-74
2022/04/28 01:40:22;;;;;;;9.80;3.47;;;8.20;99.90;;;;;;5048574;28;20446;-73
2022/04/28 01:42:48;;;;;;;13.32;4.05;;;8.20;99.90;;;;;;5043322;28;20421;-74
2022/04/28 01:45:14;;;;;;;11.65;4.20;;;8.10;99.90;;;;;;5048423;28;20455;-76
2022/04/28 01:47:40;;;;;;;7.72;2.58;;;8.10;99.90;;;;;;5047547;28;20453;-73
2022/04/28 01:50:10;;;;;;;9.05;2.10;;;8.20;99.90;;;;;;5043783;28;20433;-74
2022/04/28 01:55:23;;;;;;;12.63;3.13;;;8.20;99.90;;;;;;5047600;28;20461;-75
2022/04/28 01:57:49;;;;;;;11.33;2.90;;;8.30;99.90;;;;;;5054474;28;20453;-74
2022/04/28 02:00:16;;;;;;;12.23;2.90;;;8.40;99.90;;;;;;5050990;28;20496;-74
2022/04/28 02:02:42;;;;;;;9.95;2.85;;;8.20;99.90;;;;;;5048616;28;20484;-74
2022/04/28 02:05:10;;;;;;;10.63;3.20;;;8.20;99.90;;;;;;5056496;28;20761;-74
2022/04/28 02:07:36;;;;;;;6.97;2.65;;;8.30;99.90;;;;;;5059918;28;20451;-75
2022/04/28 02:10:04;;;;;;;7.55;2.83;;;8.30;99.90;;;;;;5051908;28;20917;-74
2022/04/28 02:12:30;;;;;;;13.85;3.33;;;8.30;99.90;;;;;;5054185;28;20506;-74
2022/04/28 02:14:56;;;;;;;8.33;2.70;;;8.40;99.90;;;;;;5055340;28;20512;-74
2022/04/28 02:17:23;;;;;;;9.17;2.70;;;8.40;99.90;;;;;;5042637;28;20420;-75
2022/04/28 02:19:49;;;;;;;7.40;2.90;;;8.50;99.90;;;;;;5050639;28;20425;-74
2022/04/28 02:22:15;;;;;;;9.13;2.90;;;8.60;99.90;;;;;;5052564;28;20466;-75
2022/04/28 02:24:41;;;;;;;11.13;4.03;;;8.50;99.90;;;;;;5050289;28;20478;-74
2022/04/28 02:27:07;;;;;;;12.60;3.33;;;8.50;99.90;;;;;;5054351;28;20907;-75
2022/04/28 02:29:33;;;;;;;9.73;2.97;;;8.30;99.90;;;;;;5047554;28;20506;-75
2022/04/28 02:31:59;;;;;;;9.30;2.72;;;8.30;99.90;;;;;;5050931;28;21471;-75
2022/04/28 02:34:25;;;;;;;13.90;3.67;;;8.40;99.90;;;;;;5050337;28;20467;-75
2022/04/28 02:36:51;;;;;;;9.45;3.47;;;8.40;99.90;;;;;;5060566;28;20501;-73
2022/04/28 02:39:19;;;;;;;10.17;3.20;;;8.40;99.90;;;;;;5051299;28;20533;-74
2022/04/28 02:41:46;;;;;;;12.50;4.75;;;8.40;99.90;;;;;;5050001;28;20433;-74
2022/04/28 02:44:12;;;;;;;10.88;3.60;;;8.40;99.90;;;;;;5050116;28;20425;-74
2022/04/28 02:46:38;;;;;;;11.43;3.17;;;8.40;99.90;;;;;;5058847;28;20427;-74
2022/04/28 02:49:04;;;;;;;13.70;3.70;;;8.40;99.90;;;;;;5065737;28;20937;-74
2022/04/28 02:51:30;;;;;;;9.68;3.10;;;8.40;99.90;;;;;;5048743;28;20437;-74
2022/04/28 02:53:56;;;;;;;10.00;3.27;;;8.40;99.90;;;;;;5044460;28;20461;-73
2022/04/28 02:56:22;;;;;;;11.10;3.77;;;8.20;99.90;;;;;;5050040;28;20461;-74
2022/04/28 02:58:48;;;;;;;9.97;2.93;;;8.10;99.90;;;;;;5048749;28;20775;-73
2022/04/28 03:01:13;;;;;;;8.98;3.85;;;8.30;99.90;;;;;;5049242;28;20459;-73
2022/04/28 03:03:39;;;;;;;13.23;4.23;;;8.40;99.90;;;;;;5049420;28;20938;-75
2022/04/28 03:11:33;;;;;;;11.70;3.40;;;8.40;99.90;;;;;;5057552;28;20464;-74
2022/04/28 03:13:59;;;;;;;10.10;3.80;;;8.40;99.90;;;;;;5050758;28;20470;-75
2022/04/28 03:16:24;;;;;;;12.57;4.47;;;8.50;99.90;;;;;;5048646;28;20421;-73
2022/04/28 03:18:50;;;;;;;12.35;3.88;;;8.50;99.90;;;;;;5047814;28;20460;-75
2022/04/28 03:21:16;;;;;;;13.02;3.70;;;8.50;99.90;;;;;;5044101;28;20438;-73
2022/04/28 03:23:42;;;;;;;8.88;3.67;;;8.50;99.90;;;;;;5038697;28;20508;-73
2022/04/28 03:26:07;;;;;;;10.05;4.00;;;8.50;99.90;;;;;;5048293;28;20441;-73
2022/04/28 03:28:35;;;;;;;9.65;3.92;;;8.50;99.90;;;;;;5046775;28;20439;-73
2022/04/28 03:31:03;;;;;;;15.02;4.93;;;8.40;99.90;;;;;;5053142;28;20435;-73
2022/04/28 03:33:29;;;;;;;11.63;3.95;;;8.50;99.90;;;;;;5050922;28;20428;-74
2022/04/28 03:35:55;;;;;;;9.20;3.28;;;8.40;99.90;;;;;;5052290;28;20423;-73
2022/04/28 03:38:20;;;;;;;10.53;3.90;;;8.40;99.90;;;;;;5046402;28;20836;-75
2022/04/28 03:40:47;;;;;;;14.00;4.00;;;8.40;99.90;;;;;;5050830;28;20771;-75
2022/04/28 03:43:13;;;;;;;12.20;3.65;;;8.50;99.90;;;;;;5061643;28;20437;-75
2022/04/28 03:45:39;;;;;;;10.27;3.83;;;8.50;99.90;;;;;;5054591;28;20751;-76
2022/04/28 03:48:09;;;;;;;11.27;3.92;;;8.50;99.90;;;;;;5049384;28;20417;-75
2022/04/28 03:50:36;;;;;;;9.85;3.53;;;8.50;99.90;;;;;;5054985;28;20444;-75
2022/04/28 03:53:02;;;;;;;10.50;3.90;;;8.50;99.90;;;;;;5044889;28;20418;-74
2022/04/28 03:55:27;;;;;;;9.97;4.53;;;8.40;99.90;;;;;;5047620;28;20976;-75
2022/04/28 03:57:53;;;;;;;11.50;4.73;;;8.50;99.90;;;;;;5063747;28;20428;-74
2022/04/28 04:00:20;;;;;;;10.52;4.25;;;8.50;99.90;;;;;;5056964;28;20436;-74
2022/04/28 04:02:46;;;;;;;8.07;3.53;;;8.60;99.90;;;;;;5050536;28;20771;-74
2022/04/28 04:05:12;;;;;;;14.43;4.82;;;8.50;99.90;;;;;;5051634;28;20960;-74
2022/04/28 04:07:42;;;;;;;11.68;4.00;;;8.50;99.90;;;;;;5054571;28;20407;-74
2022/04/28 04:10:09;;;;;;;12.03;4.93;;;8.50;99.90;;;;;;5062739;28;20473;-73
2022/04/28 04:12:35;;;;;;;14.43;4.35;;;8.60;99.90;;;;;;5049094;28;20417;-74
2022/04/28 04:15:02;;;;;;;12.15;4.25;;;8.50;99.90;;;;;;5045737;28;20440;-74
2022/04/28 04:17:27;;;;;;;12.02;4.20;;;8.50;99.90;;;;;;5041594;28;20433;-74
2022/04/28 04:19:53;;;;;;;8.80;4.10;;;8.50;99.90;;;;;;5039614;28;20447;-74
2022/04/28 04:22:18;;;;;;;12.07;4.70;;;8.50;99.90;;;;;;5046943;28;20425;-74
2022/04/28 04:24:44;;;;;;;10.00;3.60;;;8.50;99.90;;;;;;5053328;28;20943;-74
2022/04/28 04:27:10;;;;;;;12.57;4.17;;;8.50;99.90;;;;;;5043822;28;20938;-75
2022/04/28 04:29:37;;;;;;;10.27;3.45;;;8.50;99.90;;;;;;5047695;28;20427;-74
2022/04/28 04:32:18;;;;;;;13.25;4.30;;;8.50;99.90;;;;;;5046145;28;20432;-75
2022/04/28 04:34:45;;;;;;;7.10;3.72;;;8.50;99.90;;;;;;5031176;28;20429;-75
2022/04/28 04:37:11;;;;;;;11.95;4.22;;;8.50;99.90;;;;;;5045778;28;20440;-75
2022/04/28 04:39:38;;;;;;;10.97;4.33;;;8.50;99.90;;;;;;5037557;28;20522;-73
2022/04/28 04:42:04;;;;;;;12.40;5.03;;;8.60;99.90;;;;;;5052423;28;20927;-74
2022/04/28 04:44:29;;;;;;;9.13;4.07;;;8.70;99.90;;;;;;5046496;28;20460;-73
2022/04/28 04:46:55;;;;;;;8.60;3.63;;;8.70;99.90;;;;;;5046969;28;20460;-73
2022/04/28 04:49:20;;;;;;;13.17;4.50;;;8.70;99.90;;;;;;5059628;28;20451;-74
2022/04/28 04:51:46;;;;;;;12.48;4.00;;;8.80;99.90;;;;;;5060627;28;20461;-74
2022/04/28 04:54:12;;;;;;;15.00;5.07;;;8.80;99.90;;;;;;5049307;28;20494;-73
2022/04/28 04:56:38;;;;;;;10.33;5.00;;;8.80;99.90;;;;;;5047911;28;20436;-73
2022/04/28 04:59:04;;;;;;;13.45;5.07;;;8.80;99.90;;;;;;5060285;28;20423;-74
2022/04/28 05:01:30;;;;;;;14.82;5.20;;;8.80;99.90;;;;;;5054362;28;20425;-74
2022/04/28 05:03:55;;;;;;;12.35;4.35;;;8.80;99.90;;;;;;5047438;28;20436;-72
2022/04/28 05:06:21;;;;;;;12.80;4.30;;;8.90;99.90;;;;;;5048737;28;20517;-73
2022/04/28 05:08:47;;;;;;;11.63;4.60;;;8.90;99.90;;;;;;5049055;28;20496;-72
2022/04/28 05:11:12;;;;;;;14.93;5.00;;;8.90;99.90;;;;;;5048400;28;20477;-72
2022/04/28 05:13:38;;;;;;;11.48;5.40;;;8.90;99.90;;;;;;5049221;28;20413;-73
2022/04/28 05:16:04;;;;;;;11.23;5.32;;;8.90;99.90;;;;;;5045186;28;20437;-73
2022/04/28 05:18:30;;;;;;;15.13;5.53;;;8.90;99.90;;;;;;5038728;28;20496;-76
2022/04/28 05:20:56;;;;;;;14.33;5.70;;;8.90;99.90;;;;;;5036260;28;20510;-74
2022/04/28 05:23:22;;;;;;;11.23;5.10;;;9.00;99.90;;;;;;5050960;28;20454;-75
2022/04/28 05:25:48;;;;;;;13.05;4.72;;;9.00;99.90;;;;;;5052846;28;20451;-73
2022/04/28 05:28:14;;;;;;;15.65;5.35;;;8.90;99.90;;;;;;5052017;28;20946;-74
2022/04/28 05:30:39;;;;;;;12.52;4.35;;;8.90;99.90;;;;;;5047156;28;20445;-74
2022/04/28 05:33:05;;;;;;;11.27;4.18;;;8.80;99.90;;;;;;5047079;28;20450;-73
2022/04/28 05:35:34;;;;;;;15.93;4.32;;;8.90;99.90;;;;;;5053540;28;20518;-73
2022/04/28 05:38:00;;;;;;;16.85;4.75;;;8.90;99.90;;;;;;5065808;28;20410;-72
2022/04/28 05:40:26;;;;;;;11.27;4.53;;;8.90;99.90;;;;;;5050394;28;20429;-73
2022/04/28 05:45:47;;;;;;;13.85;4.88;;;9.10;99.90;;;;;;5058338;28;20426;-72
2022/04/28 05:48:17;;;;;;;12.77;5.35;;;9.00;99.90;;;;;;5063768;28;20790;-72
2022/04/28 05:50:43;;;;;;;13.77;6.47;;;8.90;99.90;;;;;;5047225;28;20521;-72
2022/04/28 05:53:09;;;;;;;14.55;5.97;;;9.00;99.90;;;;;;5057540;28;20454;-74
2022/04/28 05:55:36;;;;;;;18.45;5.22;;;9.10;99.90;;;;;;5048826;28;20417;-73
2022/04/28 05:58:02;;;;;;;11.63;4.30;;;9.10;99.90;;;;;;5052275;28;20421;-73
2022/04/28 06:00:29;;;;;;;9.88;3.55;;;9.30;99.90;;;;;;5048919;28;20571;-72
2022/04/28 06:02:55;;;;;;;8.27;3.20;;;9.40;99.90;;;;;;5050280;28;20409;-72
2022/04/28 06:05:21;;;;;;;8.43;3.42;;;9.40;99.90;;;;;;5062929;28;20480;-73
2022/04/28 06:07:47;;;;;;;9.15;3.35;;;9.30;99.90;;;;;;5048555;28;20417;-73
2022/04/28 06:10:13;;;;;;;11.57;4.00;;;9.20;99.90;;;;;;5039124;28;20980;-74
2022/04/28 06:12:40;;;;;;;12.75;3.42;;;9.40;99.90;;;;;;5058418;28;21029;-75
2022/04/28 06:15:06;;;;;;;8.82;3.30;;;9.40;99.90;;;;;;5071066;28;20412;-73
2022/04/28 06:17:31;;;;;;;11.10;3.03;;;9.40;99.90;;;;;;5050286;28;20894;-73
2022/04/28 06:19:57;;;;;;;13.73;4.03;;;9.30;99.90;;;;;;5050627;28;20565;-73
2022/04/28 06:22:22;;;;;;;12.18;3.72;;;9.40;99.90;;;;;;5066929;28;20423;-73
2022/04/28 06:24:52;;;;;;;13.25;4.13;;;9.40;99.90;;;;;;5051565;28;21448;-73
2022/04/28 06:27:18;;;;;;;10.80;3.70;;;9.30;99.90;;;;;;5051050;28;20454;-74
2022/04/28 06:29:44;;;;;;;11.02;4.38;;;9.60;99.90;;;;;;5069784;28;20465;-73
2022/04/28 06:32:10;;;;;;;10.95;2.95;;;9.40;99.90;;;;;;5059806;28;20438;-74
2022/04/28 06:34:36;;;;;;;13.27;3.38;;;9.50;99.90;;;;;;5053436;28;20448;-74
2022/04/28 06:37:02;;;;;;;11.65;3.05;;;9.60;99.90;;;;;;5049526;28;20863;-73
2022/04/28 06:39:28;;;;;;;9.23;3.30;;;9.90;99.90;;;;;;5057643;28;20430;-73
2022/04/28 06:41:53;;;;;;;10.03;3.27;;;9.90;99.90;;;;;;5051572;28;20478;-74
2022/04/28 06:44:19;;;;;;;9.77;3.50;;;9.80;99.90;;;;;;5049684;28;20433;-74
2022/04/28 06:46:44;;;;;;;12.50;2.90;;;9.60;99.90;;;;;;5058588;28;20767;-72
2022/04/28 06:49:10;;;;;;;8.07;2.78;;;9.80;99.90;;;;;;5069649;28;20440;-74
2022/04/28 06:51:36;;;;;;;12.07;3.30;;;10.60;99.90;;;;;;5055678;28;20518;-73
2022/04/28 06:54:02;;;;;;;11.03;4.00;;;10.90;99.90;;;;;;5055277;28;20525;-73
2022/04/28 06:56:29;;;;;;;12.43;3.22;;;10.70;99.90;;;;;;5057730;28;20431;-72
2022/04/28 06:58:54;;;;;;;8.45;3.47;;;10.70;99.90;;;;;;5048830;28;20425;-73
2022/04/28 07:01:20;;;;;;;6.38;2.33;;;10.80;99.90;;;;;;5049881;28;20455;-74
2022/04/28 07:03:46;;;;;;;9.57;2.70;;;10.40;99.90;;;;;;5051513;28;20408;-74
2022/04/28 07:06:11;;;;;;;11.88;3.58;;;10.20;99.90;;;;;;5064294;28;20427;-74
2022/04/28 07:08:37;;;;;;;9.97;2.60;;;10.30;99.90;;;;;;5064083;28;20416;-73
2022/04/28 07:11:02;;;;;;;11.37;2.63;;;10.40;99.90;;;;;;5057113;28;20802;-73
2022/04/28 07:13:28;;;;;;;7.93;2.25;;;10.30;99.90;;;;;;5054230;28;20427;-74
2022/04/28 07:15:54;;;;;;;14.70;3.75;;;10.70;99.90;;;;;;5051377;28;20444;-73
2022/04/28 07:18:19;;;;;;;8.68;2.63;;;10.70;99.90;;;;;;5067742;28;20469;-75
2022/04/28 07:20:45;;;;;;;10.57;2.80;;;10.50;99.90;;;;;;5059094;28;20432;-73
2022/04/28 07:23:10;;;;;;;8.43;2.30;;;10.50;99.90;;;;;;5044081;28;20464;-73
2022/04/28 07:25:36;;;;;;;9.70;2.50;;;10.20;99.90;;;;;;5050321;28;20433;-73
2022/04/28 07:28:02;;;;;;;8.70;2.78;;;10.30;99.90;;;;;;5045907;28;20425;-72
2022/04/28 07:30:28;;;;;;;7.20;2.00;;;10.20;99.90;;;;;;5048136;28;20487;-72
2022/04/28 07:32:53;;;;;;;9.90;2.42;;;10.10;99.90;;;;;;5049688;28;20432;-73
2022/04/28 07:35:21;;;;;;;8.95;2.50;;;10.40;99.90;;;;;;5047075;28;20434;-73
2022/04/28 07:37:47;;;;;;;7.57;2.30;;;10.90;99.90;;;;;;5043549;28;20508;-73
2022/04/28 07:40:12;;;;;;;8.60;2.23;;;11.10;99.90;;;;;;5055155;28;20515;-73
2022/04/28 07:42:38;;;;;;;7.70;2.53;;;11.20;99.90;;;;;;5045819;28;20422;-72
2022/04/28 07:45:04;;;;;;;6.67;1.60;;;11.00;99.90;;;;;;5050815;28;20436;-72
2022/04/28 07:47:31;;;;;;;10.65;2.35;;;11.10;99.90;;;;;;5048072;28;20840;-72
2022/04/28 07:49:57;;;;;;;8.63;2.13;;;10.70;99.90;;;;;;5044489;28;20429;-72
2022/04/28 07:52:23;;;;;;;5.55;1.85;;;10.70;99.90;;;;;;5056174;28;20429;-72
2022/04/28 07:54:49;;;;;;;9.20;2.35;;;10.90;99.90;;;;;;5044892;28;20436;-72
2022/04/28 07:57:15;;;;;;;9.90;3.17;;;10.90;99.90;;;;;;5048718;28;20437;-72
2022/04/28 07:59:41;;;;;;;7.30;1.80;;;10.90;99.90;;;;;;5061192;28;20416;-74
2022/04/28 08:02:13;;;;;;;8.38;2.10;;;10.70;99.90;;;;;;5050590;28;20915;-73
2022/04/28 08:04:42;;;;;;;7.57;2.38;;;10.40;99.90;;;;;;5048218;28;20429;-75
2022/04/28 08:07:08;;;;;;;7.15;2.30;;;10.50;99.90;;;;;;5055543;28;20423;-77
2022/04/28 08:09:34;;;;;;;7.67;1.93;;;10.60;99.90;;;;;;5047412;28;20432;-75
2022/04/28 08:12:00;;;;;;;9.53;2.57;;;10.70;99.90;;;;;;5045667;28;20417;-74
2022/04/28 08:14:26;;;;;;;9.93;1.98;;;10.60;99.90;;;;;;5049294;28;20495;-74
2022/04/28 08:16:52;;;;;;;8.48;2.00;;;10.70;99.90;;;;;;5038198;28;20466;-75
2022/04/28 08:19:19;;;;;;;9.30;2.40;;;10.90;99.90;;;;;;5055986;28;20425;-75
2022/04/28 08:21:46;;;;;;;7.18;1.88;;;11.00;99.90;;;;;;5058054;28;20405;-75
2022/04/28 08:24:12;;;;;;;7.78;2.17;;;11.00;99.90;;;;;;5048244;28;20417;-74
2022/04/28 08:26:37;;;;;;;7.30;2.20;;;11.00;99.90;;;;;;5048158;28;20482;-75
2022/04/28 08:29:04;;;;;;;11.03;1.80;;;10.90;99.90;;;;;;5048237;28;20444;-75
2022/04/28 08:31:30;;;;;;;7.68;2.30;;;11.20;99.90;;;;;;5055999;28;20448;-74
2022/04/28 08:33:55;;;;;;;14.98;2.92;;;10.90;99.90;;;;;;5052586;28;20846;-75
2022/04/28 08:36:21;;;;;;;6.95;1.92;;;10.90;99.90;;;;;;5047670;28;20518;-75
2022/04/28 08:38:46;;;;;;;11.57;2.73;;;10.80;99.90;;;;;;5048562;28;20402;-74
2022/04/28 08:41:16;;;;;;;8.30;2.00;;;10.80;99.90;;;;;;5049004;28;20433;-74
2022/04/28 08:43:43;;;;;;;9.60;1.95;;;10.60;99.90;;;;;;5044941;28;20421;-75
2022/04/28 08:48:57;;;;;;;10.57;1.88;;;10.70;99.90;;;;;;5040732;28;20401;-74
2022/04/28 08:51:27;;;;;;;10.83;2.70;;;10.70;99.90;;;;;;5047993;28;21012;-74
2022/04/28 08:53:53;;;;;;;11.23;2.15;;;10.80;99.90;;;;;;5062513;28;20504;-75
2022/04/28 08:56:21;;;;;;;9.73;2.37;;;10.60;99.90;;;;;;5044900;28;20511;-75
2022/04/28 08:58:47;;;;;;;7.28;1.70;;;11.10;99.90;;;;;;5046558;28;20499;-71
2022/04/28 09:01:14;;;;;;;7.65;2.10;;;11.10;99.90;;;;;;5045413;28;20429;-70
2022/04/28 09:03:41;;;;;;;10.80;2.50;;;11.10;99.90;;;;;;5045522;28;20436;-71
2022/04/28 09:06:20;;;;;;;8.73;1.80;;;11.10;99.90;;;;;;5047278;28;20428;-72
2022/04/28 09:08:47;;;;;;;9.05;2.30;;;11.60;99.90;;;;;;5048267;28;20433;-73
2022/04/28 09:11:20;;;;;;;8.20;1.77;;;11.60;99.90;;;;;;5046905;28;20460;-71
2022/04/28 09:14:09;;;;;;;5.70;1.93;;;11.70;99.90;;;;;;5035153;28;21042;-72
2022/04/28 09:16:59;;;;;;;6.88;2.28;;;11.80;99.90;;;;;;5040834;28;20430;-72
2022/04/28 09:19:27;;;;;;;8.63;1.70;;;11.50;99.90;;;;;;5039358;28;20487;-72
2022/04/28 09:21:59;;;;;;;9.15;2.45;;;11.60;99.90;;;;;;5048456;28;20421;-72
2022/04/28 09:24:27;;;;;;;12.45;4.10;;;11.70;99.90;;;;;;5045955;28;20993;-72
2022/04/28 09:26:55;;;;;;;8.80;2.33;;;11.80;99.90;;;;;;5045055;28;20421;-71
2022/04/28 09:29:23;;;;;;;9.25;1.73;;;11.70;99.90;;;;;;5045808;28;20969;-73
2022/04/28 09:31:50;;;;;;;6.75;1.88;;;11.50;99.90;;;;;;5043833;28;20433;-71
2022/04/28 09:34:21;;;;;;;8.65;2.53;;;11.50;99.90;;;;;;5045870;28;20417;-73
2022/04/28 09:36:48;;;;;;;11.20;2.42;;;11.10;99.90;;;;;;5046051;28;20476;-71
2022/04/28 09:44:55;;;;;;;5.50;1.90;;;11.60;99.90;;;;;;5044772;28;20429;-72
2022/04/28 09:47:22;;;;;;;7.73;2.20;;;11.50;99.90;;;;;;5044584;28;20481;-73
2022/04/28 09:49:52;;;;;;;9.10;2.17;;;11.40;99.90;;;;;;5043128;28;20421;-73
2022/04/28 09:52:24;;;;;;;6.72;1.85;;;11.60;99.90;;;;;;5044401;28;20432;-73
2022/04/28 09:54:58;;;;;;;5.22;1.63;;;11.70;99.90;;;;;;5047196;28;20420;-73
2022/04/28 09:57:24;;;;;;;7.22;1.73;;;11.60;99.90;;;;;;5028377;28;20407;-72
2022/04/28 09:59:55;;;;;;;8.97;2.20;;;11.30;99.90;;;;;;5042409;28;20518;-72
2022/04/28 10:02:23;;;;;;;9.57;1.90;;;11.60;99.90;;;;;;5047473;28;20404;-73
2022/04/28 10:04:50;;;;;;;11.15;2.80;;;11.30;99.90;;;;;;5027082;28;20457;-73
2022/04/28 10:07:16;;;;;;;11.68;2.75;;;11.30;99.90;;;;;;5050618;28;20423;-73
2022/04/28 10:09:45;;;;;;;6.97;2.00;;;11.50;99.90;;;;;;5046373;28;20457;-72
2022/04/28 10:12:14;;;;;;;7.37;1.90;;;11.80;99.90;;;;;;5046103;28;20448;-73
2022/04/28 10:14:40;;;;;;;8.27;2.40;;;11.80;99.90;;;;;;5046427;28;20530;-73
2022/04/28 10:17:13;;;;;;;8.32;2.20;;;12.00;99.90;;;;;;5047807;28;20855;-72
2022/04/28 10:19:43;;;;;;;12.02;2.60;;;11.90;99.90;;;;;;5039923;28;20421;-73
2022/04/28 10:22:15;;;;;;;9.20;2.58;;;12.00;99.90;;;;;;5054673;28;20938;-73
2022/04/28 10:33:09;;;;;;;10.68;2.92;;;11.50;99.90;;;;;;5056581;28;20433;-71
2022/04/28 10:35:50;;;;;;;15.47;3.47;;;11.90;99.90;;;;;;5048016;28;20437;-71
2022/04/28 10:38:19;;;;;;;11.68;3.88;;;11.70;99.90;;;;;;5046969;28;20417;-70
2022/04/28 10:40:56;;;;;;;11.93;3.30;;;11.50;99.90;;;;;;5048176;28;20422;-71
2022/04/28 10:43:28;;;;;;;12.65;3.20;;;11.50;99.90;;;;;;5050495;28;20607;-71
2022/04/28 10:45:56;;;;;;;12.27;3.60;;;11.80;99.90;;;;;;5054948;28;20421;-69
2022/04/28 10:48:28;;;;;;;8.07;2.40;;;11.80;99.90;;;;;;5051193;28;20776;-70
2022/04/28 10:51:17;;;;;;;12.15;4.70;;;11.90;99.90;;;;;;5047567;28;20449;-70
2022/04/28 10:53:58;;;;;;;10.43;3.50;;;11.70;99.90;;;;;;5050445;28;20767;-70
2022/04/28 10:56:25;;;;;;;9.57;2.83;;;11.80;99.90;;;;;;5050794;28;20421;-70
2022/04/28 10:58:52;;;;;;;9.52;2.80;;;11.50;99.90;;;;;;5048065;28;20451;-69
2022/04/28 11:01:31;;;;;;;7.78;3.10;;;11.30;99.90;;;;;;5048731;28;20437;-70
2022/04/28 11:04:02;;;;;;;8.77;2.92;;;11.40;99.90;;;;;;5059022;28;20789;-70
2022/04/28 11:06:37;;;;;;;9.95;2.53;;;11.50;99.90;;;;;;5055750;28;20465;-70
2022/04/28 11:09:05;;;;;;;9.45;3.35;;;11.50;99.90;;;;;;5047921;28;20945;-70
2022/04/28 11:11:45;;;;;;;13.75;3.28;;;11.60;99.90;;;;;;5053341;28;20468;-69
2022/04/28 11:14:12;;;;;;;10.93;3.20;;;12.10;99.90;;;;;;5052595;28;20433;-69
2022/04/28 11:16:40;;;;;;;10.88;3.80;;;12.00;99.90;;;;;;5049429;28;20433;-69
2022/04/28 11:19:08;;;;;;;12.03;4.03;;;11.60;99.90;;;;;;5056567;28;20479;-69
2022/04/28 11:21:35;;;;;;;14.93;4.10;;;12.10;99.90;;;;;;5052655;28;20433;-69
2022/04/28 11:24:03;;;;;;;12.07;3.50;;;11.80;99.90;;;;;;5050369;28;20463;-69
2022/04/28 11:26:29;;;;;;;8.52;2.85;;;11.60;99.90;;;;;;5049477;28;20425;-70
2022/04/28 11:28:55;;;;;;;8.85;2.95;;;12.00;99.90;;;;;;5052503;28;20440;-69
2022/04/28 11:31:21;;;;;;;11.45;3.38;;;11.90;99.90;;;;;;5048583;28;20441;-71
2022/04/28 11:33:50;;;;;;;11.05;3.20;;;11.90;99.90;;;;;;5049344;28;20417;-71
2022/04/28 11:36:23;;;;;;;9.63;2.47;;;12.00;99.90;;;;;;5048723;28;20434;-70
2022/04/28 11:38:51;;;;;;;10.03;2.60;;;11.80;99.90;;;;;;5027449;28;20504;-70
2022/04/28 11:41:21;;;;;;;11.33;3.53;;;11.90;99.90;;;;;;5053837;28;20428;-70
2022/04/28 11:43:47;;;;;;;12.00;3.13;;;12.10;99.90;;;;;;5047569;28;20756;-70
2022/04/28 11:46:14;;;;;;;12.63;3.80;;;12.20;99.90;;;;;;5051235;28;20432;-70
2022/04/28 11:48:39;;;;;;;12.15;3.03;;;12.00;99.90;;;;;;5045078;28;20433;-70
2022/04/28 11:51:05;;;;;;;11.88;3.30;;;11.60;99.90;;;;;;5048409;28;20433;-69
2022/04/28 11:53:45;;;;;;;13.20;3.00;;;11.50;99.90;;;;;;5048345;28;20401;-70
2022/04/28 11:56:18;;;;;;;12.13;3.60;;;11.60;99.90;;;;;;5047253;28;20475;-71
2022/04/28 11:58:48;;;;;;;11.82;3.03;;;11.50;99.90;;;;;;5047429;28;20420;-70
2022/04/28 12:01:15;;;;;;;13.45;2.92;;;12.00;99.90;;;;;;5048365;28;20440;-70
2022/04/28 12:03:48;;;;;;;11.73;3.55;;;12.00;99.90;;;;;;5048879;28;20432;-69
2022/04/28 12:06:16;;;;;;;12.60;3.17;;;11.80;99.90;;;;;;5046789;28;22956;-70
2022/04/28 12:08:50;;;;;;;10.60;2.67;;;12.10;99.90;;;;;;5049215;28;20487;-70
2022/04/28 12:19:31;;;;;;;11.88;3.53;;;11.70;99.90;;;;;;5031065;28;20446;-71
2022/04/28 12:22:03;;;;;;;11.80;3.25;;;11.80;99.90;;;;;;5058011;28;20453;-71
2022/04/28 12:24:35;;;;;;;9.68;2.67;;;12.10;99.90;;;;;;5039184;28;20421;-71
2022/04/28 12:27:07;;;;;;;11.43;3.30;;;11.80;99.90;;;;;;5047383;28;20461;-72
2022/04/28 12:29:52;;;;;;;13.05;2.95;;;11.80;99.90;;;;;;5048882;28;20413;-71
2022/04/28 12:32:22;;;;;;;11.63;3.33;;;11.90;99.90;;;;;;5061990;28;20554;-72
2022/04/28 12:34:58;;;;;;;11.65;2.67;;;12.00;99.90;;;;;;5048719;28;20408;-71
2022/04/28 12:37:26;;;;;;;13.63;2.92;;;12.30;99.90;;;;;;5047644;28;20934;-71
2022/04/28 12:40:02;;;;;;;13.00;2.97;;;12.20;99.90;;;;;;5048256;28;20960;-71
2022/04/28 12:42:46;;;;;;;12.38;3.95;;;11.80;99.90;;;;;;5046139;28;20515;-71
2022/04/28 12:45:12;;;;;;;10.77;3.10;;;12.20;99.90;;;;;;5042523;28;20753;-71
2022/04/28 12:47:39;;;;;;;12.80;3.40;;;12.20;99.90;;;;;;5046987;28;20441;-71
2022/04/28 12:50:19;;;;;;;11.50;2.60;;;11.90;99.90;;;;;;5047187;28;21014;-70
2022/04/28 12:52:45;;;;;;;10.32;2.85;;;12.10;99.90;;;;;;5047840;28;20429;-71
2022/04/28 12:55:11;;;;;;;14.32;3.05;;;12.10;99.90;;;;;;5048127;28;20405;-71
2022/04/28 12:57:37;;;;;;;13.60;3.40;;;12.00;99.90;;;;;;5047529;28;20425;-71
2022/04/28 13:00:08;;;;;;;12.15;3.45;;;12.20;99.90;;;;;;5048446;28;20422;-68
2022/04/28 13:02:34;;;;;;;9.52;2.85;;;12.30;99.90;;;;;;5038127;28;20433;-71
2022/04/28 13:05:12;;;;;;;11.35;2.35;;;12.20;99.90;;;;;;5047710;28;20474;-72
2022/04/28 13:07:39;;;;;;;11.13;2.83;;;11.90;99.90;;;;;;5041527;28;20838;-71
2022/04/28 13:10:15;;;;;;;11.80;2.58;;;11.80;99.90;;;;;;5048087;28;20417;-71
2022/04/28 13:12:41;;;;;;;8.77;2.50;;;11.80;99.90;;;;;;5045509;28;20934;-71
2022/04/28 13:15:07;;;;;;;11.35;2.53;;;12.00;99.90;;;;;;5047429;28;20519;-70
2022/04/28 13:17:33;;;;;;;10.55;2.35;;;12.10;99.90;;;;;;5049099;28;20412;-71
2022/04/28 13:19:59;;;;;;;11.77;2.70;;;11.90;99.90;;;;;;5047080;28;20424;-71
2022/04/28 13:22:25;;;;;;;9.30;2.23;;;11.70;99.90;;;;;;5046018;28;20524;-71
2022/04/28 13:24:51;;;;;;;8.07;2.28;;;11.50;99.90;;;;;;5045664;28;20446;-71